sensor_id;sensor_type;location;lat;lon;timestamp;pressure;altitude;pressure_sealevel;temperature;humidity
69980;BME280;57318;56.232;43.944;2023-04-16T00:00:05;100716.19;;;1.85;33.15
69980;BME280;57318;56.232;43.944;2023-04-16T00:02:32;100712.03;;;1.74;32.87
69980;BME280;57318;56.232;43.944;2023-04-16T00:04:58;100713.09;;;1.67;30.31
69980;BME280;57318;56.232;43.944;2023-04-16T00:07:24;100713.16;;;1.64;30.04
69980;BME280;57318;56.232;43.944;2023-04-16T00:09:50;100714.91;;;1.65;29.53
69980;BME280;57318;56.232;43.944;2023-04-16T00:12:15;100720.06;;;1.67;29.84
69980;BME280;57318;56.232;43.944;2023-04-16T00:14:41;100721.72;;;1.71;29.78
69980;BME280;57318;56.232;43.944;2023-04-16T00:17:08;100720.81;;;1.73;29.75
69980;BME280;57318;56.232;43.944;2023-04-16T00:19:34;100709.41;;;1.74;29.38
69980;BME280;57318;56.232;43.944;2023-04-16T00:22:00;100717.22;;;1.77;29.29
69980;BME280;57318;56.232;43.944;2023-04-16T00:24:26;100717.22;;;1.77;28.98
69980;BME280;57318;56.232;43.944;2023-04-16T00:26:51;100721.50;;;1.82;29.37
69980;BME280;57318;56.232;43.944;2023-04-16T00:29:17;100709.31;;;1.79;29.28
69980;BME280;57318;56.232;43.944;2023-04-16T00:31:43;100711.97;;;1.77;28.92
69980;BME280;57318;56.232;43.944;2023-04-16T00:34:09;100715.47;;;1.78;28.66
69980;BME280;57318;56.232;43.944;2023-04-16T00:36:35;100714.63;;;1.76;28.39
69980;BME280;57318;56.232;43.944;2023-04-16T00:39:00;100719.00;;;1.75;28.36
69980;BME280;57318;56.232;43.944;2023-04-16T00:41:26;100719.91;;;1.74;28.43
69980;BME280;57318;56.232;43.944;2023-04-16T00:43:52;100714.72;;;1.71;28.47
69980;BME280;57318;56.232;43.944;2023-04-16T00:46:18;100717.41;;;1.68;28.32
69980;BME280;57318;56.232;43.944;2023-04-16T00:48:46;100720.94;;;1.67;28.35
69980;BME280;57318;56.232;43.944;2023-04-16T00:51:12;100717.44;;;1.67;28.16
69980;BME280;57318;56.232;43.944;2023-04-16T00:53:37;100719.28;;;1.63;27.94
69980;BME280;57318;56.232;43.944;2023-04-16T00:56:05;100719.34;;;1.60;28.48
69980;BME280;57318;56.232;43.944;2023-04-16T00:58:32;100727.28;;;1.57;28.52
69980;BME280;57318;56.232;43.944;2023-04-16T01:00:59;100722.13;;;1.52;28.77
69980;BME280;57318;56.232;43.944;2023-04-16T01:03:37;100734.44;;;1.49;28.66
69980;BME280;57318;56.232;43.944;2023-04-16T01:06:05;100733.69;;;1.43;28.80
69980;BME280;57318;56.232;43.944;2023-04-16T01:08:31;100734.63;;;1.41;28.69
69980;BME280;57318;56.232;43.944;2023-04-16T01:10:57;100732.03;;;1.39;28.56
69980;BME280;57318;56.232;43.944;2023-04-16T01:13:23;100730.31;;;1.38;28.12
69980;BME280;57318;56.232;43.944;2023-04-16T01:15:49;100730.22;;;1.41;28.00
69980;BME280;57318;56.232;43.944;2023-04-16T01:18:16;100726.72;;;1.42;27.39
69980;BME280;57318;56.232;43.944;2023-04-16T01:20:42;100726.69;;;1.44;27.23
69980;BME280;57318;56.232;43.944;2023-04-16T01:23:08;100721.50;;;1.42;27.11
69980;BME280;57318;56.232;43.944;2023-04-16T01:25:34;100727.53;;;1.44;26.71
69980;BME280;57318;56.232;43.944;2023-04-16T01:28:00;100720.53;;;1.47;26.29
69980;BME280;57318;56.232;43.944;2023-04-16T01:30:25;100713.50;;;1.49;26.30
69980;BME280;57318;56.232;43.944;2023-04-16T01:32:51;100716.91;;;1.52;25.65
69980;BME280;57318;56.232;43.944;2023-04-16T01:35:17;100718.59;;;1.55;25.30
69980;BME280;57318;56.232;43.944;2023-04-16T01:37:43;100721.97;;;1.60;25.36
69980;BME280;57318;56.232;43.944;2023-04-16T01:40:09;100727.19;;;1.61;25.19
69980;BME280;57318;56.232;43.944;2023-04-16T01:42:36;100726.28;;;1.62;25.18
69980;BME280;57318;56.232;43.944;2023-04-16T01:45:03;100728.00;;;1.65;25.13
69980;BME280;57318;56.232;43.944;2023-04-16T01:47:30;100725.41;;;1.64;25.16
69980;BME280;57318;56.232;43.944;2023-04-16T01:49:56;100732.38;;;1.63;24.91
69980;BME280;57318;56.232;43.944;2023-04-16T01:52:22;100728.06;;;1.62;25.03
69980;BME280;57318;56.232;43.944;2023-04-16T01:54:47;100729.75;;;1.63;25.01
69980;BME280;57318;56.232;43.944;2023-04-16T01:57:13;100737.63;;;1.63;24.86
69980;BME280;57318;56.232;43.944;2023-04-16T01:59:39;100731.53;;;1.62;24.84
69980;BME280;57318;56.232;43.944;2023-04-16T02:02:12;100734.94;;;1.66;24.59
69980;BME280;57318;56.232;43.944;2023-04-16T02:04:41;100737.53;;;1.68;24.44
69980;BME280;57318;56.232;43.944;2023-04-16T02:07:07;100740.94;;;1.71;24.34
69980;BME280;57318;56.232;43.944;2023-04-16T02:09:36;100737.47;;;1.71;24.37
69980;BME280;57318;56.232;43.944;2023-04-16T02:12:03;100742.66;;;1.72;24.36
69980;BME280;57318;56.232;43.944;2023-04-16T02:14:29;100740.03;;;1.72;24.58
69980;BME280;57318;56.232;43.944;2023-04-16T02:16:55;100737.47;;;1.71;24.59
69980;BME280;57318;56.232;43.944;2023-04-16T02:19:21;100740.06;;;1.71;24.91
69980;BME280;57318;56.232;43.944;2023-04-16T02:21:47;100735.72;;;1.70;25.13
69980;BME280;57318;56.232;43.944;2023-04-16T02:24:13;100727.81;;;1.71;25.22
69980;BME280;57318;56.232;43.944;2023-04-16T02:26:39;100731.38;;;1.70;25.25
69980;BME280;57318;56.232;43.944;2023-04-16T02:29:05;100736.53;;;1.73;25.36
69980;BME280;57318;56.232;43.944;2023-04-16T02:31:31;100739.16;;;1.73;26.59
69980;BME280;57318;56.232;43.944;2023-04-16T02:33:57;100735.59;;;1.76;26.65
69980;BME280;57318;56.232;43.944;2023-04-16T02:36:23;100740.81;;;1.76;26.14
69980;BME280;57318;56.232;43.944;2023-04-16T02:38:49;100737.31;;;1.77;25.66
69980;BME280;57318;56.232;43.944;2023-04-16T02:41:14;100739.03;;;1.79;25.35
69980;BME280;57318;56.232;43.944;2023-04-16T02:43:40;100735.41;;;1.84;25.21
69980;BME280;57318;56.232;43.944;2023-04-16T02:46:06;100738.81;;;1.89;25.08
69980;BME280;57318;56.232;43.944;2023-04-16T02:48:31;100736.13;;;1.92;25.38
69980;BME280;57318;56.232;43.944;2023-04-16T02:50:57;100742.03;;;2.00;25.54
69980;BME280;57318;56.232;43.944;2023-04-16T02:53:23;100748.88;;;2.06;25.51
69980;BME280;57318;56.232;43.944;2023-04-16T02:55:53;100748.75;;;2.10;25.53
69980;BME280;57318;56.232;43.944;2023-04-16T02:58:24;100752.19;;;2.14;25.66
69980;BME280;57318;56.232;43.944;2023-04-16T03:00:51;100751.19;;;2.18;25.51
69980;BME280;57318;56.232;43.944;2023-04-16T03:03:16;100753.81;;;2.18;26.05
69980;BME280;57318;56.232;43.944;2023-04-16T03:05:42;100752.09;;;2.19;26.28
69980;BME280;57318;56.232;43.944;2023-04-16T03:08:08;100756.44;;;2.18;27.01
69980;BME280;57318;56.232;43.944;2023-04-16T03:10:34;100751.25;;;2.16;27.04
69980;BME280;57318;56.232;43.944;2023-04-16T03:13:00;100754.72;;;2.19;26.79
69980;BME280;57318;56.232;43.944;2023-04-16T03:15:26;100752.91;;;2.21;26.60
69980;BME280;57318;56.232;43.944;2023-04-16T03:17:52;100753.72;;;2.23;26.39
69980;BME280;57318;56.232;43.944;2023-04-16T03:20:18;100757.94;;;2.30;26.43
69980;BME280;57318;56.232;43.944;2023-04-16T03:22:45;100760.34;;;2.38;26.21
69980;BME280;57318;56.232;43.944;2023-04-16T03:25:11;100760.28;;;2.41;26.53
69980;BME280;57318;56.232;43.944;2023-04-16T03:27:37;100764.56;;;2.43;26.49
69980;BME280;57318;56.232;43.944;2023-04-16T03:30:05;100770.69;;;2.44;26.13
69980;BME280;57318;56.232;43.944;2023-04-16T03:32:31;100763.66;;;2.46;26.04
69980;BME280;57318;56.232;43.944;2023-04-16T03:34:57;100761.75;;;2.51;26.15
69980;BME280;57318;56.232;43.944;2023-04-16T03:37:23;100759.91;;;2.55;25.91
69980;BME280;57318;56.232;43.944;2023-04-16T03:39:49;100758.09;;;2.58;25.85
69980;BME280;57318;56.232;43.944;2023-04-16T03:42:14;100758.81;;;2.63;25.77
69980;BME280;57318;56.232;43.944;2023-04-16T03:44:40;100758.66;;;2.69;25.35
69980;BME280;57318;56.232;43.944;2023-04-16T03:47:06;100761.13;;;2.76;25.15
69980;BME280;57318;56.232;43.944;2023-04-16T03:49:32;100758.34;;;2.82;25.28
69980;BME280;57318;56.232;43.944;2023-04-16T03:51:57;100763.56;;;2.83;24.68
69980;BME280;57318;56.232;43.944;2023-04-16T03:54:23;100766.78;;;2.93;24.78
69980;BME280;57318;56.232;43.944;2023-04-16T03:56:49;100764.84;;;3.00;24.89
69980;BME280;57318;56.232;43.944;2023-04-16T03:59:14;100760.22;;;3.08;24.54
69980;BME280;57318;56.232;43.944;2023-04-16T04:01:40;100759.97;;;3.17;24.63
69980;BME280;57318;56.232;43.944;2023-04-16T04:04:06;100753.66;;;3.24;24.63
69980;BME280;57318;56.232;43.944;2023-04-16T04:06:32;100759.47;;;3.36;25.05
69980;BME280;57318;56.232;43.944;2023-04-16T04:08:58;100749.56;;;3.44;24.42
69980;BME280;57318;56.232;43.944;2023-04-16T04:11:24;100758.13;;;3.52;24.66
69980;BME280;57318;56.232;43.944;2023-04-16T04:13:49;100761.38;;;3.60;24.30
69980;BME280;57318;56.232;43.944;2023-04-16T04:16:15;100754.97;;;3.69;24.04
69980;BME280;57318;56.232;43.944;2023-04-16T04:18:41;100759.88;;;3.80;23.96
69980;BME280;57318;56.232;43.944;2023-04-16T04:21:07;100760.47;;;3.90;23.22
69980;BME280;57318;56.232;43.944;2023-04-16T04:23:36;100760.31;;;3.94;22.90
69980;BME280;57318;56.232;43.944;2023-04-16T04:26:02;100758.97;;;4.09;22.46
69980;BME280;57318;56.232;43.944;2023-04-16T04:28:33;100763.84;;;4.22;22.13
69980;BME280;57318;56.232;43.944;2023-04-16T04:31:00;100753.88;;;4.31;22.14
69980;BME280;57318;56.232;43.944;2023-04-16T04:33:26;100753.47;;;4.44;21.91
69980;BME280;57318;56.232;43.944;2023-04-16T04:35:52;100749.59;;;4.54;22.05
69980;BME280;57318;56.232;43.944;2023-04-16T04:38:18;100759.72;;;4.66;21.93
69980;BME280;57318;56.232;43.944;2023-04-16T04:40:47;100758.56;;;4.75;21.88
69980;BME280;57318;56.232;43.944;2023-04-16T04:43:13;100758.19;;;4.86;22.22
69980;BME280;57318;56.232;43.944;2023-04-16T04:45:39;100758.81;;;4.93;21.92
69980;BME280;57318;56.232;43.944;2023-04-16T04:48:05;100757.63;;;5.01;22.76
69980;BME280;57318;56.232;43.944;2023-04-16T04:50:31;100747.69;;;5.10;22.83
69980;BME280;57318;56.232;43.944;2023-04-16T04:52:57;100746.53;;;5.17;23.50
69980;BME280;57318;56.232;43.944;2023-04-16T04:55:23;100750.63;;;5.26;23.67
69980;BME280;57318;56.232;43.944;2023-04-16T04:57:49;100753.81;;;5.34;23.60
69980;BME280;57318;56.232;43.944;2023-04-16T05:00:15;100751.81;;;5.40;23.77
69980;BME280;57318;56.232;43.944;2023-04-16T05:02:41;100753.53;;;5.41;23.58
69980;BME280;57318;56.232;43.944;2023-04-16T05:05:07;100751.06;;;5.37;24.19
69980;BME280;57318;56.232;43.944;2023-04-16T05:07:33;100749.28;;;5.37;23.96
69980;BME280;57318;56.232;43.944;2023-04-16T05:09:58;100749.09;;;5.42;23.44
69980;BME280;57318;56.232;43.944;2023-04-16T05:12:24;100746.25;;;5.48;23.30
69980;BME280;57318;56.232;43.944;2023-04-16T05:14:50;100749.50;;;5.55;23.36
69980;BME280;57318;56.232;43.944;2023-04-16T05:17:16;100750.25;;;5.58;23.19
69980;BME280;57318;56.232;43.944;2023-04-16T05:19:42;100745.72;;;5.62;23.57
69980;BME280;57318;56.232;43.944;2023-04-16T05:22:07;100751.53;;;5.70;23.89
69980;BME280;57318;56.232;43.944;2023-04-16T05:24:33;100754.72;;;5.80;25.17
69980;BME280;57318;56.232;43.944;2023-04-16T05:26:59;100752.00;;;5.82;25.42
69980;BME280;57318;56.232;43.944;2023-04-16T05:29:24;100754.31;;;5.89;24.87
69980;BME280;57318;56.232;43.944;2023-04-16T05:31:51;100759.91;;;6.05;24.39
69980;BME280;57318;56.232;43.944;2023-04-16T05:34:16;100760.38;;;6.15;24.18
69980;BME280;57318;56.232;43.944;2023-04-16T05:36:42;100761.84;;;6.22;24.17
69980;BME280;57318;56.232;43.944;2023-04-16T05:39:08;100762.47;;;6.29;23.71
69980;BME280;57318;56.232;43.944;2023-04-16T05:41:34;100758.63;;;6.36;24.00
69980;BME280;57318;56.232;43.944;2023-04-16T05:44:00;100759.09;;;6.46;24.75
69980;BME280;57318;56.232;43.944;2023-04-16T05:46:26;100761.09;;;6.61;24.75
69980;BME280;57318;56.232;43.944;2023-04-16T05:48:51;100764.75;;;6.79;24.72
69980;BME280;57318;56.232;43.944;2023-04-16T05:51:17;100760.00;;;6.88;25.21
69980;BME280;57318;56.232;43.944;2023-04-16T05:53:43;100759.47;;;7.00;25.35
69980;BME280;57318;56.232;43.944;2023-04-16T05:56:09;100758.59;;;7.20;25.09
69980;BME280;57318;56.232;43.944;2023-04-16T05:58:34;100763.97;;;7.37;24.98
69980;BME280;57318;56.232;43.944;2023-04-16T06:01:00;100753.81;;;7.47;24.61
69980;BME280;57318;56.232;43.944;2023-04-16T06:03:26;100757.94;;;7.53;24.44
69980;BME280;57318;56.232;43.944;2023-04-16T06:05:52;100758.41;;;7.63;24.26
69980;BME280;57318;56.232;43.944;2023-04-16T06:08:18;100750.25;;;7.67;24.46
69980;BME280;57318;56.232;43.944;2023-04-16T06:10:47;100755.06;;;7.76;23.78
69980;BME280;57318;56.232;43.944;2023-04-16T06:13:13;100760.00;;;7.84;23.54
69980;BME280;57318;56.232;43.944;2023-04-16T06:15:39;100758.34;;;8.01;23.04
69980;BME280;57318;56.232;43.944;2023-04-16T06:18:05;100763.75;;;8.71;22.32
69980;BME280;57318;56.232;43.944;2023-04-16T06:20:30;100770.94;;;10.49;20.39
69980;BME280;57318;56.232;43.944;2023-04-16T06:22:56;100762.28;;;12.45;18.08
69980;BME280;57318;56.232;43.944;2023-04-16T06:25:22;100771.41;;;14.32;16.38
69980;BME280;57318;56.232;43.944;2023-04-16T06:27:48;100765.41;;;16.13;14.95
69980;BME280;57318;56.232;43.944;2023-04-16T06:30:15;100774.09;;;18.24;13.51
69980;BME280;57318;56.232;43.944;2023-04-16T06:32:43;100777.06;;;19.74;11.78
69980;BME280;57318;56.232;43.944;2023-04-16T06:35:10;100776.59;;;21.15;10.94
69980;BME280;57318;56.232;43.944;2023-04-16T06:37:35;100784.59;;;22.61;10.33
69980;BME280;57318;56.232;43.944;2023-04-16T06:40:01;100782.84;;;24.21;9.49
69980;BME280;57318;56.232;43.944;2023-04-16T06:42:27;100783.66;;;25.44;8.90
69980;BME280;57318;56.232;43.944;2023-04-16T06:44:53;100779.97;;;25.82;8.17
69980;BME280;57318;56.232;43.944;2023-04-16T06:47:19;100773.63;;;26.47;7.57
69980;BME280;57318;56.232;43.944;2023-04-16T06:49:45;100770.22;;;26.89;6.98
69980;BME280;57318;56.232;43.944;2023-04-16T06:52:11;100779.84;;;27.48;6.59
69980;BME280;57318;56.232;43.944;2023-04-16T06:54:38;100772.31;;;27.50;6.56
69980;BME280;57318;56.232;43.944;2023-04-16T06:57:04;100777.75;;;27.43;6.32
69980;BME280;57318;56.232;43.944;2023-04-16T06:59:30;100771.88;;;26.90;6.31
69980;BME280;57318;56.232;43.944;2023-04-16T07:01:56;100760.44;;;26.73;6.25
69980;BME280;57318;56.232;43.944;2023-04-16T07:04:22;100766.00;;;26.43;6.44
69980;BME280;57318;56.232;43.944;2023-04-16T07:06:48;100764.31;;;26.42;6.41
69980;BME280;57318;56.232;43.944;2023-04-16T07:09:13;100755.13;;;26.43;6.37
69980;BME280;57318;56.232;43.944;2023-04-16T07:11:40;100756.59;;;26.45;6.17
69980;BME280;57318;56.232;43.944;2023-04-16T07:14:06;100754.84;;;26.38;5.70
69980;BME280;57318;56.232;43.944;2023-04-16T07:16:32;100744.47;;;26.26;5.79
69980;BME280;57318;56.232;43.944;2023-04-16T07:18:57;100761.06;;;25.44;6.44
69980;BME280;57318;56.232;43.944;2023-04-16T07:21:23;100759.81;;;25.46;6.44
69980;BME280;57318;56.232;43.944;2023-04-16T07:23:49;100750.75;;;25.90;6.02
69980;BME280;57318;56.232;43.944;2023-04-16T07:26:14;100752.22;;;26.08;5.95
69980;BME280;57318;56.232;43.944;2023-04-16T07:28:40;100751.47;;;26.57;5.98
69980;BME280;57318;56.232;43.944;2023-04-16T07:31:06;100758.75;;;27.00;5.83
69980;BME280;57318;56.232;43.944;2023-04-16T07:33:32;100744.75;;;27.38;5.46
69980;BME280;57318;56.232;43.944;2023-04-16T07:35:58;100751.28;;;27.37;5.23
69980;BME280;57318;56.232;43.944;2023-04-16T07:38:23;100746.13;;;27.27;5.23
69980;BME280;57318;56.232;43.944;2023-04-16T07:40:49;100744.88;;;27.30;4.73
69980;BME280;57318;56.232;43.944;2023-04-16T07:43:15;100755.25;;;27.83;4.68
69980;BME280;57318;56.232;43.944;2023-04-16T07:45:41;100746.88;;;27.91;4.47
69980;BME280;57318;56.232;43.944;2023-04-16T07:48:07;100743.47;;;28.64;4.42
69980;BME280;57318;56.232;43.944;2023-04-16T07:50:32;100754.41;;;28.97;4.46
69980;BME280;57318;56.232;43.944;2023-04-16T07:52:58;100758.38;;;29.02;4.26
69980;BME280;57318;56.232;43.944;2023-04-16T07:55:24;100746.59;;;29.01;4.19
69980;BME280;57318;56.232;43.944;2023-04-16T07:57:50;100745.31;;;29.30;4.09
69980;BME280;57318;56.232;43.944;2023-04-16T08:00:16;100749.75;;;29.83;4.32
69980;BME280;57318;56.232;43.944;2023-04-16T08:02:42;100756.69;;;30.24;4.13
69980;BME280;57318;56.232;43.944;2023-04-16T08:05:08;100751.78;;;30.65;4.02
69980;BME280;57318;56.232;43.944;2023-04-16T08:07:35;100751.91;;;30.77;3.58
69980;BME280;57318;56.232;43.944;2023-04-16T08:10:01;100752.44;;;31.11;3.67
69980;BME280;57318;56.232;43.944;2023-04-16T08:12:28;100750.81;;;31.28;3.67
69980;BME280;57318;56.232;43.944;2023-04-16T08:14:54;100740.72;;;30.53;4.10
69980;BME280;57318;56.232;43.944;2023-04-16T08:17:19;100747.41;;;30.57;4.07
69980;BME280;57318;56.232;43.944;2023-04-16T08:19:45;100732.63;;;30.58;3.83
69980;BME280;57318;56.232;43.944;2023-04-16T08:22:11;100725.09;;;30.54;3.82
69980;BME280;57318;56.232;43.944;2023-04-16T08:24:37;100728.38;;;30.88;3.75
69980;BME280;57318;56.232;43.944;2023-04-16T08:27:03;100730.34;;;31.61;3.67
69980;BME280;57318;56.232;43.944;2023-04-16T08:29:29;100733.25;;;32.27;3.40
69980;BME280;57318;56.232;43.944;2023-04-16T08:31:55;100723.59;;;32.36;3.16
69980;BME280;57318;56.232;43.944;2023-04-16T08:34:20;100725.75;;;32.46;3.25
69980;BME280;57318;56.232;43.944;2023-04-16T08:36:46;100728.63;;;32.40;3.18
69980;BME280;57318;56.232;43.944;2023-04-16T08:39:12;100713.28;;;32.20;3.32
69980;BME280;57318;56.232;43.944;2023-04-16T08:41:39;100718.03;;;31.82;3.28
69980;BME280;57318;56.232;43.944;2023-04-16T08:44:08;100720.78;;;32.13;3.30
69980;BME280;57318;56.232;43.944;2023-04-16T08:46:39;100710.78;;;32.18;3.11
69980;BME280;57318;56.232;43.944;2023-04-16T08:49:06;100709.34;;;31.97;3.29
69980;BME280;57318;56.232;43.944;2023-04-16T08:51:35;100716.75;;;32.15;3.42
69980;BME280;57318;56.232;43.944;2023-04-16T08:54:07;100715.72;;;32.52;3.07
69980;BME280;57318;56.232;43.944;2023-04-16T08:56:39;100714.03;;;32.51;3.00
69980;BME280;57318;56.232;43.944;2023-04-16T08:59:06;100713.31;;;31.16;3.26
69980;BME280;57318;56.232;43.944;2023-04-16T09:01:34;100713.13;;;30.92;3.39
69980;BME280;57318;56.232;43.944;2023-04-16T09:04:01;100710.59;;;30.90;3.48
69980;BME280;57318;56.232;43.944;2023-04-16T09:06:29;100701.31;;;31.54;3.34
69980;BME280;57318;56.232;43.944;2023-04-16T09:08:56;100706.03;;;31.77;3.10
69980;BME280;57318;56.232;43.944;2023-04-16T09:11:24;100701.34;;;32.26;3.23
69980;BME280;57318;56.232;43.944;2023-04-16T09:13:50;100702.22;;;32.98;2.93
69980;BME280;57318;56.232;43.944;2023-04-16T09:16:17;100695.66;;;33.92;2.81
69980;BME280;57318;56.232;43.944;2023-04-16T09:18:44;100696.84;;;34.42;2.47
69980;BME280;57318;56.232;43.944;2023-04-16T09:21:12;100690.28;;;34.65;2.22
69980;BME280;57318;56.232;43.944;2023-04-16T09:23:38;100680.28;;;34.59;2.27
69980;BME280;57318;56.232;43.944;2023-04-16T09:26:05;100686.56;;;34.93;2.41
69980;BME280;57318;56.232;43.944;2023-04-16T09:28:41;100690.09;;;35.28;2.27
69980;BME280;57318;56.232;43.944;2023-04-16T09:31:14;100686.25;;;36.00;2.10
69980;BME280;57318;56.232;43.944;2023-04-16T09:33:42;100686.69;;;36.19;1.84
69980;BME280;57318;56.232;43.944;2023-04-16T09:36:08;100683.34;;;36.49;1.93
69980;BME280;57318;56.232;43.944;2023-04-16T09:41:13;100679.00;;;36.26;2.19
69980;BME280;57318;56.232;43.944;2023-04-16T09:44:08;100679.94;;;36.42;1.71
69980;BME280;57318;56.232;43.944;2023-04-16T09:46:35;100678.06;;;36.48;1.77
69980;BME280;57318;56.232;43.944;2023-04-16T09:49:07;100673.09;;;36.50;1.56
69980;BME280;57318;56.232;43.944;2023-04-16T09:51:37;100674.25;;;35.89;1.72
69980;BME280;57318;56.232;43.944;2023-04-16T09:54:06;100667.03;;;35.88;1.83
69980;BME280;57318;56.232;43.944;2023-04-16T09:56:32;100669.91;;;35.99;2.19
69980;BME280;57318;56.232;43.944;2023-04-16T09:59:01;100663.69;;;36.19;1.87
69980;BME280;57318;56.232;43.944;2023-04-16T10:01:27;100662.56;;;35.60;1.83
69980;BME280;57318;56.232;43.944;2023-04-16T10:03:54;100651.38;;;34.83;2.21
69980;BME280;57318;56.232;43.944;2023-04-16T10:06:22;100657.50;;;34.85;2.27
69980;BME280;57318;56.232;43.944;2023-04-16T10:08:49;100658.50;;;35.40;1.95
69980;BME280;57318;56.232;43.944;2023-04-16T10:11:19;100661.91;;;35.75;1.90
69980;BME280;57318;56.232;43.944;2023-04-16T10:13:45;100666.72;;;36.49;1.68
69980;BME280;57318;56.232;43.944;2023-04-16T10:16:11;100653.81;;;36.65;1.67
69980;BME280;57318;56.232;43.944;2023-04-16T10:18:42;100652.66;;;36.61;2.00
69980;BME280;57318;56.232;43.944;2023-04-16T10:21:08;100660.75;;;35.44;2.09
69980;BME280;57318;56.232;43.944;2023-04-16T10:23:38;100652.56;;;35.32;2.36
69980;BME280;57318;56.232;43.944;2023-04-16T10:26:05;100653.44;;;34.93;2.21
69980;BME280;57318;56.232;43.944;2023-04-16T10:28:31;100649.38;;;35.23;2.33
69980;BME280;57318;56.232;43.944;2023-04-16T10:31:02;100640.47;;;35.16;2.13
69980;BME280;57318;56.232;43.944;2023-04-16T10:33:32;100638.63;;;34.43;2.27
69980;BME280;57318;56.232;43.944;2023-04-16T10:36:14;100637.94;;;34.53;2.32
69980;BME280;57318;56.232;43.944;2023-04-16T10:38:45;100646.44;;;34.85;2.20
69980;BME280;57318;56.232;43.944;2023-04-16T10:41:11;100641.34;;;34.77;2.23
69980;BME280;57318;56.232;43.944;2023-04-16T10:43:39;100643.59;;;35.24;1.90
69980;BME280;57318;56.232;43.944;2023-04-16T10:46:25;100641.41;;;35.44;1.94
69980;BME280;57318;56.232;43.944;2023-04-16T10:48:55;100643.59;;;35.24;1.81
69980;BME280;57318;56.232;43.944;2023-04-16T10:51:31;100646.00;;;35.38;1.89
69980;BME280;57318;56.232;43.944;2023-04-16T10:56:35;100641.53;;;34.03;2.23
69980;BME280;57318;56.232;43.944;2023-04-16T10:59:04;100639.22;;;34.45;2.11
69980;BME280;57318;56.232;43.944;2023-04-16T11:01:36;100641.31;;;34.94;1.77
69980;BME280;57318;56.232;43.944;2023-04-16T11:09:56;100628.66;;;35.20;1.78
69980;BME280;57318;56.232;43.944;2023-04-16T11:14:58;100626.72;;;34.77;1.95
69980;BME280;57318;56.232;43.944;2023-04-16T11:17:28;100626.88;;;34.70;1.86
69980;BME280;57318;56.232;43.944;2023-04-16T11:19:54;100616.22;;;34.23;1.93
69980;BME280;57318;56.232;43.944;2023-04-16T11:22:20;100610.03;;;34.15;1.82
69980;BME280;57318;56.232;43.944;2023-04-16T11:24:46;100613.81;;;34.26;2.08
69980;BME280;57318;56.232;43.944;2023-04-16T11:27:13;100605.75;;;33.91;2.07
69980;BME280;57318;56.232;43.944;2023-04-16T11:29:41;100599.09;;;33.87;1.94
69980;BME280;57318;56.232;43.944;2023-04-16T11:32:06;100604.66;;;33.75;2.04
69980;BME280;57318;56.232;43.944;2023-04-16T11:34:32;100595.09;;;32.96;1.96
69980;BME280;57318;56.232;43.944;2023-04-16T11:36:58;100592.28;;;32.44;2.60
69980;BME280;57318;56.232;43.944;2023-04-16T11:39:24;100593.47;;;32.83;2.56
69980;BME280;57318;56.232;43.944;2023-04-16T11:41:51;100603.28;;;33.32;2.21
69980;BME280;57318;56.232;43.944;2023-04-16T11:44:17;100596.63;;;33.73;2.18
69980;BME280;57318;56.232;43.944;2023-04-16T11:46:43;100598.59;;;33.90;2.18
69980;BME280;57318;56.232;43.944;2023-04-16T11:49:09;100591.97;;;33.74;2.21
69980;BME280;57318;56.232;43.944;2023-04-16T11:51:41;100595.25;;;33.59;2.13
69980;BME280;57318;56.232;43.944;2023-04-16T11:54:07;100599.00;;;33.82;2.08
69980;BME280;57318;56.232;43.944;2023-04-16T11:56:34;100589.81;;;33.64;2.25
69980;BME280;57318;56.232;43.944;2023-04-16T11:59:11;100587.47;;;33.56;2.35
69980;BME280;57318;56.232;43.944;2023-04-16T12:01:39;100588.56;;;33.26;2.40
69980;BME280;57318;56.232;43.944;2023-04-16T12:04:06;100585.91;;;33.31;2.40
69980;BME280;57318;56.232;43.944;2023-04-16T12:06:32;100579.97;;;33.10;2.37
69980;BME280;57318;56.232;43.944;2023-04-16T12:08:59;100585.88;;;33.02;2.27
69980;BME280;57318;56.232;43.944;2023-04-16T12:11:41;100578.25;;;32.81;2.45
69980;BME280;57318;56.232;43.944;2023-04-16T12:14:09;100574.59;;;32.40;2.58
69980;BME280;57318;56.232;43.944;2023-04-16T12:16:35;100573.94;;;31.90;2.65
69980;BME280;57318;56.232;43.944;2023-04-16T12:19:02;100566.72;;;31.65;3.09
69980;BME280;57318;56.232;43.944;2023-04-16T12:21:42;100566.94;;;31.64;2.71
69980;BME280;57318;56.232;43.944;2023-04-16T12:24:10;100560.38;;;31.35;2.70
69980;BME280;57318;56.232;43.944;2023-04-16T12:26:44;100556.03;;;30.97;3.03
69980;BME280;57318;56.232;43.944;2023-04-16T12:31:41;100557.00;;;30.03;3.19
69980;BME280;57318;56.232;43.944;2023-04-16T12:34:07;100546.31;;;29.63;3.37
69980;BME280;57318;56.232;43.944;2023-04-16T12:36:35;100544.41;;;29.31;3.23
69980;BME280;57318;56.232;43.944;2023-04-16T12:39:00;100546.16;;;29.12;3.48
69980;BME280;57318;56.232;43.944;2023-04-16T12:41:28;100543.44;;;29.12;3.54
69980;BME280;57318;56.232;43.944;2023-04-16T12:44:08;100532.56;;;28.99;3.51
69980;BME280;57318;56.232;43.944;2023-04-16T12:46:40;100536.47;;;28.65;3.57
69980;BME280;57318;56.232;43.944;2023-04-16T12:49:08;100531.22;;;28.50;3.75
69980;BME280;57318;56.232;43.944;2023-04-16T12:51:35;100532.91;;;28.51;4.06
69980;BME280;57318;56.232;43.944;2023-04-16T12:54:02;100531.47;;;28.35;3.94
69980;BME280;57318;56.232;43.944;2023-04-16T12:56:29;100525.00;;;28.16;3.91
69980;BME280;57318;56.232;43.944;2023-04-16T12:58:55;100528.34;;;28.18;4.03
69980;BME280;57318;56.232;43.944;2023-04-16T13:01:21;100517.44;;;28.11;4.06
69980;BME280;57318;56.232;43.944;2023-04-16T13:03:47;100510.69;;;28.14;4.08